sensor_id;sensor_type;location;lat;lon;timestamp;P1;durP1;ratioP1;P2;durP2;ratioP2
55340;SDS011;58855;44.984;20.158;2022-07-22T00:01:37;9.95;;;4.10;;
55340;SDS011;58855;44.984;20.158;2022-07-22T00:04:03;11.45;;;3.85;;
55340;SDS011;58855;44.984;20.158;2022-07-22T00:06:29;10.00;;;3.63;;
55340;SDS011;58855;44.984;20.158;2022-07-22T00:08:55;7.15;;;3.80;;
55340;SDS011;58855;44.984;20.158;2022-07-22T00:11:22;11.13;;;3.75;;
55340;SDS011;58855;44.984;20.158;2022-07-22T00:13:48;8.45;;;3.78;;
55340;SDS011;58855;44.984;20.158;2022-07-22T00:16:14;6.38;;;3.60;;
55340;SDS011;58855;44.984;20.158;2022-07-22T00:18:41;12.20;;;4.38;;
55340;SDS011;58855;44.984;20.158;2022-07-22T00:21:07;11.23;;;4.15;;
55340;SDS011;58855;44.984;20.158;2022-07-22T00:23:33;8.90;;;4.13;;
55340;SDS011;58855;44.984;20.158;2022-07-22T00:25:59;9.27;;;3.58;;
55340;SDS011;58855;44.984;20.158;2022-07-22T00:28:25;9.68;;;3.70;;
55340;SDS011;58855;44.984;20.158;2022-07-22T00:30:52;8.57;;;4.82;;
55340;SDS011;58855;44.984;20.158;2022-07-22T00:33:18;8.23;;;5.22;;
55340;SDS011;58855;44.984;20.158;2022-07-22T00:35:44;7.95;;;4.00;;
55340;SDS011;58855;44.984;20.158;2022-07-22T00:38:10;11.13;;;4.72;;
55340;SDS011;58855;44.984;20.158;2022-07-22T00:40:36;13.52;;;8.90;;
55340;SDS011;58855;44.984;20.158;2022-07-22T00:43:02;10.32;;;6.07;;
55340;SDS011;58855;44.984;20.158;2022-07-22T00:45:28;9.55;;;5.65;;
55340;SDS011;58855;44.984;20.158;2022-07-22T00:47:54;8.57;;;4.75;;
55340;SDS011;58855;44.984;20.158;2022-07-22T00:50:20;11.23;;;4.28;;
55340;SDS011;58855;44.984;20.158;2022-07-22T00:52:48;15.55;;;5.47;;
55340;SDS011;58855;44.984;20.158;2022-07-22T00:55:15;7.32;;;3.47;;
55340;SDS011;58855;44.984;20.158;2022-07-22T00:57:41;11.15;;;4.03;;
55340;SDS011;58855;44.984;20.158;2022-07-22T01:00:09;13.90;;;4.13;;
55340;SDS011;58855;44.984;20.158;2022-07-22T01:02:36;15.18;;;4.05;;
55340;SDS011;58855;44.984;20.158;2022-07-22T01:05:02;10.57;;;4.35;;
55340;SDS011;58855;44.984;20.158;2022-07-22T01:07:28;11.38;;;4.10;;
55340;SDS011;58855;44.984;20.158;2022-07-22T01:09:54;7.78;;;3.80;;
55340;SDS011;58855;44.984;20.158;2022-07-22T01:12:20;12.68;;;4.30;;
55340;SDS011;58855;44.984;20.158;2022-07-22T01:14:47;5.95;;;3.80;;
55340;SDS011;58855;44.984;20.158;2022-07-22T01:17:13;9.52;;;3.97;;
55340;SDS011;58855;44.984;20.158;2022-07-22T01:19:39;11.13;;;4.22;;
55340;SDS011;58855;44.984;20.158;2022-07-22T01:22:06;9.30;;;5.30;;
55340;SDS011;58855;44.984;20.158;2022-07-22T01:24:32;12.30;;;5.25;;
55340;SDS011;58855;44.984;20.158;2022-07-22T01:26:58;9.15;;;5.75;;
55340;SDS011;58855;44.984;20.158;2022-07-22T01:29:24;10.70;;;4.90;;
55340;SDS011;58855;44.984;20.158;2022-07-22T01:31:51;9.27;;;4.75;;
55340;SDS011;58855;44.984;20.158;2022-07-22T01:34:17;11.02;;;4.07;;
55340;SDS011;58855;44.984;20.158;2022-07-22T01:36:43;14.30;;;4.75;;
55340;SDS011;58855;44.984;20.158;2022-07-22T01:39:09;10.77;;;4.57;;
55340;SDS011;58855;44.984;20.158;2022-07-22T01:41:36;7.60;;;3.65;;
55340;SDS011;58855;44.984;20.158;2022-07-22T01:44:02;11.27;;;4.38;;
55340;SDS011;58855;44.984;20.158;2022-07-22T01:46:29;18.02;;;4.45;;
55340;SDS011;58855;44.984;20.158;2022-07-22T01:48:55;9.13;;;4.30;;
55340;SDS011;58855;44.984;20.158;2022-07-22T01:51:21;8.27;;;3.97;;
55340;SDS011;58855;44.984;20.158;2022-07-22T01:53:47;10.70;;;3.90;;
55340;SDS011;58855;44.984;20.158;2022-07-22T01:56:14;11.70;;;3.92;;
55340;SDS011;58855;44.984;20.158;2022-07-22T01:58:40;8.73;;;4.10;;
55340;SDS011;58855;44.984;20.158;2022-07-22T02:01:07;8.68;;;4.05;;
55340;SDS011;58855;44.984;20.158;2022-07-22T02:03:33;9.02;;;4.22;;
55340;SDS011;58855;44.984;20.158;2022-07-22T02:05:59;11.32;;;4.15;;
55340;SDS011;58855;44.984;20.158;2022-07-22T02:08:25;13.07;;;5.20;;
55340;SDS011;58855;44.984;20.158;2022-07-22T02:10:52;11.52;;;4.18;;
55340;SDS011;58855;44.984;20.158;2022-07-22T02:13:18;9.50;;;3.78;;
55340;SDS011;58855;44.984;20.158;2022-07-22T02:15:44;11.10;;;3.90;;
55340;SDS011;58855;44.984;20.158;2022-07-22T02:18:14;10.60;;;4.65;;
55340;SDS011;58855;44.984;20.158;2022-07-22T02:20:40;12.15;;;5.10;;
55340;SDS011;58855;44.984;20.158;2022-07-22T02:23:06;12.60;;;4.38;;
55340;SDS011;58855;44.984;20.158;2022-07-22T02:25:33;12.18;;;4.85;;
55340;SDS011;58855;44.984;20.158;2022-07-22T02:28:00;9.63;;;4.50;;
55340;SDS011;58855;44.984;20.158;2022-07-22T02:30:26;7.63;;;4.75;;
55340;SDS011;58855;44.984;20.158;2022-07-22T02:32:52;9.07;;;4.75;;
55340;SDS011;58855;44.984;20.158;2022-07-22T02:35:18;13.02;;;5.45;;
55340;SDS011;58855;44.984;20.158;2022-07-22T02:37:44;14.23;;;5.60;;
55340;SDS011;58855;44.984;20.158;2022-07-22T02:40:10;9.18;;;5.05;;
55340;SDS011;58855;44.984;20.158;2022-07-22T02:42:36;9.80;;;4.45;;
55340;SDS011;58855;44.984;20.158;2022-07-22T02:45:03;14.30;;;5.63;;
55340;SDS011;58855;44.984;20.158;2022-07-22T02:47:29;13.00;;;5.03;;
55340;SDS011;58855;44.984;20.158;2022-07-22T02:49:55;13.10;;;5.32;;
55340;SDS011;58855;44.984;20.158;2022-07-22T02:52:21;9.52;;;4.88;;
55340;SDS011;58855;44.984;20.158;2022-07-22T02:54:47;10.65;;;5.47;;
55340;SDS011;58855;44.984;20.158;2022-07-22T02:57:14;13.80;;;5.82;;
55340;SDS011;58855;44.984;20.158;2022-07-22T02:59:40;9.38;;;5.18;;
55340;SDS011;58855;44.984;20.158;2022-07-22T03:02:06;9.38;;;5.35;;
55340;SDS011;58855;44.984;20.158;2022-07-22T03:04:32;11.45;;;4.97;;
55340;SDS011;58855;44.984;20.158;2022-07-22T03:06:58;11.55;;;5.28;;
55340;SDS011;58855;44.984;20.158;2022-07-22T03:09:24;11.40;;;5.43;;
55340;SDS011;58855;44.984;20.158;2022-07-22T03:11:50;14.35;;;5.15;;
55340;SDS011;58855;44.984;20.158;2022-07-22T03:14:16;19.77;;;5.57;;
55340;SDS011;58855;44.984;20.158;2022-07-22T03:16:43;14.63;;;6.05;;
55340;SDS011;58855;44.984;20.158;2022-07-22T03:19:09;17.95;;;5.78;;
55340;SDS011;58855;44.984;20.158;2022-07-22T03:21:36;15.75;;;5.30;;
55340;SDS011;58855;44.984;20.158;2022-07-22T03:24:02;18.73;;;5.85;;
55340;SDS011;58855;44.984;20.158;2022-07-22T03:26:28;15.98;;;4.95;;
55340;SDS011;58855;44.984;20.158;2022-07-22T03:28:54;14.43;;;5.70;;
55340;SDS011;58855;44.984;20.158;2022-07-22T03:31:20;15.07;;;5.82;;
55340;SDS011;58855;44.984;20.158;2022-07-22T03:33:46;15.43;;;5.60;;
55340;SDS011;58855;44.984;20.158;2022-07-22T03:36:12;14.15;;;5.13;;
55340;SDS011;58855;44.984;20.158;2022-07-22T03:38:38;10.95;;;6.05;;
55340;SDS011;58855;44.984;20.158;2022-07-22T03:41:04;14.68;;;5.35;;
55340;SDS011;58855;44.984;20.158;2022-07-22T03:43:31;17.70;;;5.60;;
55340;SDS011;58855;44.984;20.158;2022-07-22T03:45:57;18.95;;;6.60;;
55340;SDS011;58855;44.984;20.158;2022-07-22T03:48:23;21.17;;;6.47;;
55340;SDS011;58855;44.984;20.158;2022-07-22T03:50:49;27.90;;;7.25;;
55340;SDS011;58855;44.984;20.158;2022-07-22T03:53:16;29.15;;;7.55;;
55340;SDS011;58855;44.984;20.158;2022-07-22T03:55:43;24.52;;;7.18;;
55340;SDS011;58855;44.984;20.158;2022-07-22T03:58:09;18.35;;;6.40;;
55340;SDS011;58855;44.984;20.158;2022-07-22T04:00:35;17.00;;;9.98;;
55340;SDS011;58855;44.984;20.158;2022-07-22T04:03:01;20.08;;;10.48;;
55340;SDS011;58855;44.984;20.158;2022-07-22T04:05:27;18.48;;;10.55;;
55340;SDS011;58855;44.984;20.158;2022-07-22T04:07:53;13.45;;;7.75;;
55340;SDS011;58855;44.984;20.158;2022-07-22T04:10:19;16.83;;;7.65;;
55340;SDS011;58855;44.984;20.158;2022-07-22T04:12:45;17.30;;;7.30;;
55340;SDS011;58855;44.984;20.158;2022-07-22T04:15:11;11.65;;;7.47;;
55340;SDS011;58855;44.984;20.158;2022-07-22T04:17:38;12.07;;;6.88;;
55340;SDS011;58855;44.984;20.158;2022-07-22T04:20:04;15.07;;;7.43;;
55340;SDS011;58855;44.984;20.158;2022-07-22T04:22:31;10.98;;;7.13;;
55340;SDS011;58855;44.984;20.158;2022-07-22T04:24:57;10.85;;;7.13;;
55340;SDS011;58855;44.984;20.158;2022-07-22T04:27:23;18.52;;;7.53;;
55340;SDS011;58855;44.984;20.158;2022-07-22T04:29:49;16.75;;;6.90;;
55340;SDS011;58855;44.984;20.158;2022-07-22T04:32:15;10.82;;;7.28;;
55340;SDS011;58855;44.984;20.158;2022-07-22T04:34:41;17.17;;;8.00;;
55340;SDS011;58855;44.984;20.158;2022-07-22T04:37:08;17.98;;;8.15;;
55340;SDS011;58855;44.984;20.158;2022-07-22T04:39:34;15.98;;;6.78;;
55340;SDS011;58855;44.984;20.158;2022-07-22T04:42:00;16.27;;;7.80;;
55340;SDS011;58855;44.984;20.158;2022-07-22T04:44:26;15.30;;;7.80;;
55340;SDS011;58855;44.984;20.158;2022-07-22T04:46:52;13.55;;;7.75;;
55340;SDS011;58855;44.984;20.158;2022-07-22T04:49:18;20.55;;;7.32;;
55340;SDS011;58855;44.984;20.158;2022-07-22T04:51:44;22.42;;;8.07;;
55340;SDS011;58855;44.984;20.158;2022-07-22T04:54:11;16.70;;;7.30;;
55340;SDS011;58855;44.984;20.158;2022-07-22T04:56:37;21.58;;;8.27;;
55340;SDS011;58855;44.984;20.158;2022-07-22T04:59:03;19.05;;;8.00;;
55340;SDS011;58855;44.984;20.158;2022-07-22T05:01:29;16.50;;;8.68;;
55340;SDS011;58855;44.984;20.158;2022-07-22T05:03:55;20.70;;;10.23;;
55340;SDS011;58855;44.984;20.158;2022-07-22T05:06:21;20.00;;;10.68;;
55340;SDS011;58855;44.984;20.158;2022-07-22T05:08:47;22.52;;;8.00;;
55340;SDS011;58855;44.984;20.158;2022-07-22T05:11:13;15.32;;;6.85;;
55340;SDS011;58855;44.984;20.158;2022-07-22T05:13:40;17.48;;;7.45;;
55340;SDS011;58855;44.984;20.158;2022-07-22T05:16:06;23.30;;;7.78;;
55340;SDS011;58855;44.984;20.158;2022-07-22T05:18:32;17.00;;;7.72;;
55340;SDS011;58855;44.984;20.158;2022-07-22T05:20:59;23.50;;;7.70;;
55340;SDS011;58855;44.984;20.158;2022-07-22T05:23:26;20.60;;;7.97;;
55340;SDS011;58855;44.984;20.158;2022-07-22T05:25:52;24.02;;;7.72;;
55340;SDS011;58855;44.984;20.158;2022-07-22T05:28:18;19.88;;;6.95;;
55340;SDS011;58855;44.984;20.158;2022-07-22T05:30:45;26.33;;;8.13;;
55340;SDS011;58855;44.984;20.158;2022-07-22T05:33:11;20.17;;;6.70;;
55340;SDS011;58855;44.984;20.158;2022-07-22T05:35:37;19.50;;;7.10;;
55340;SDS011;58855;44.984;20.158;2022-07-22T05:38:03;22.92;;;6.85;;
55340;SDS011;58855;44.984;20.158;2022-07-22T05:40:31;18.40;;;7.43;;
55340;SDS011;58855;44.984;20.158;2022-07-22T05:42:57;23.08;;;7.30;;
55340;SDS011;58855;44.984;20.158;2022-07-22T05:45:23;14.93;;;6.85;;
55340;SDS011;58855;44.984;20.158;2022-07-22T05:47:49;22.02;;;7.32;;
55340;SDS011;58855;44.984;20.158;2022-07-22T05:50:16;20.77;;;6.60;;
55340;SDS011;58855;44.984;20.158;2022-07-22T05:52:42;27.08;;;6.53;;
55340;SDS011;58855;44.984;20.158;2022-07-22T05:55:09;15.70;;;6.28;;
55340;SDS011;58855;44.984;20.158;2022-07-22T05:57:35;18.92;;;5.60;;
55340;SDS011;58855;44.984;20.158;2022-07-22T06:00:02;19.70;;;7.10;;
55340;SDS011;58855;44.984;20.158;2022-07-22T06:02:28;19.63;;;6.10;;
55340;SDS011;58855;44.984;20.158;2022-07-22T06:04:55;13.02;;;5.63;;
55340;SDS011;58855;44.984;20.158;2022-07-22T06:07:21;12.77;;;6.30;;
55340;SDS011;58855;44.984;20.158;2022-07-22T06:09:47;14.13;;;6.00;;
55340;SDS011;58855;44.984;20.158;2022-07-22T06:12:14;11.25;;;5.13;;
55340;SDS011;58855;44.984;20.158;2022-07-22T06:14:40;11.43;;;5.32;;
55340;SDS011;58855;44.984;20.158;2022-07-22T06:17:06;15.10;;;6.63;;
55340;SDS011;58855;44.984;20.158;2022-07-22T06:19:32;21.73;;;5.45;;
55340;SDS011;58855;44.984;20.158;2022-07-22T06:21:58;16.30;;;5.30;;
55340;SDS011;58855;44.984;20.158;2022-07-22T06:24:24;12.60;;;5.15;;
55340;SDS011;58855;44.984;20.158;2022-07-22T06:26:51;13.25;;;5.40;;
55340;SDS011;58855;44.984;20.158;2022-07-22T06:29:17;12.13;;;4.55;;
55340;SDS011;58855;44.984;20.158;2022-07-22T06:31:43;14.32;;;5.07;;
55340;SDS011;58855;44.984;20.158;2022-07-22T06:34:09;16.67;;;5.25;;
55340;SDS011;58855;44.984;20.158;2022-07-22T06:36:35;13.65;;;4.78;;
55340;SDS011;58855;44.984;20.158;2022-07-22T06:39:02;9.45;;;5.22;;
55340;SDS011;58855;44.984;20.158;2022-07-22T06:41:28;7.50;;;4.20;;
55340;SDS011;58855;44.984;20.158;2022-07-22T06:43:54;11.77;;;5.20;;
55340;SDS011;58855;44.984;20.158;2022-07-22T06:46:20;14.98;;;5.07;;
55340;SDS011;58855;44.984;20.158;2022-07-22T06:48:46;11.93;;;4.90;;
55340;SDS011;58855;44.984;20.158;2022-07-22T06:51:12;10.40;;;4.38;;
55340;SDS011;58855;44.984;20.158;2022-07-22T06:53:40;10.43;;;4.78;;
55340;SDS011;58855;44.984;20.158;2022-07-22T06:56:06;10.73;;;4.65;;
55340;SDS011;58855;44.984;20.158;2022-07-22T06:58:32;8.88;;;4.85;;
55340;SDS011;58855;44.984;20.158;2022-07-22T07:00:58;8.13;;;5.00;;
55340;SDS011;58855;44.984;20.158;2022-07-22T07:03:24;16.88;;;4.70;;
55340;SDS011;58855;44.984;20.158;2022-07-22T07:05:51;15.02;;;4.78;;
55340;SDS011;58855;44.984;20.158;2022-07-22T07:08:18;8.93;;;4.80;;
55340;SDS011;58855;44.984;20.158;2022-07-22T07:10:44;14.30;;;4.88;;
55340;SDS011;58855;44.984;20.158;2022-07-22T07:13:10;11.23;;;5.43;;
55340;SDS011;58855;44.984;20.158;2022-07-22T07:15:36;14.95;;;4.43;;
55340;SDS011;58855;44.984;20.158;2022-07-22T07:18:02;9.63;;;4.30;;
55340;SDS011;58855;44.984;20.158;2022-07-22T07:20:28;11.85;;;4.35;;
55340;SDS011;58855;44.984;20.158;2022-07-22T07:22:54;8.50;;;3.65;;
55340;SDS011;58855;44.984;20.158;2022-07-22T07:25:21;7.20;;;3.90;;
55340;SDS011;58855;44.984;20.158;2022-07-22T07:27:47;12.18;;;4.43;;
55340;SDS011;58855;44.984;20.158;2022-07-22T07:30:13;7.97;;;3.90;;
55340;SDS011;58855;44.984;20.158;2022-07-22T07:32:39;12.43;;;4.20;;
55340;SDS011;58855;44.984;20.158;2022-07-22T07:35:06;8.75;;;3.60;;
55340;SDS011;58855;44.984;20.158;2022-07-22T07:37:32;9.43;;;3.60;;
55340;SDS011;58855;44.984;20.158;2022-07-22T07:39:59;10.23;;;4.88;;
55340;SDS011;58855;44.984;20.158;2022-07-22T07:42:25;8.73;;;3.65;;
55340;SDS011;58855;44.984;20.158;2022-07-22T07:44:51;8.65;;;3.78;;
55340;SDS011;58855;44.984;20.158;2022-07-22T07:47:18;10.13;;;3.70;;
55340;SDS011;58855;44.984;20.158;2022-07-22T07:49:46;9.13;;;3.88;;
55340;SDS011;58855;44.984;20.158;2022-07-22T07:52:13;9.65;;;3.35;;
55340;SDS011;58855;44.984;20.158;2022-07-22T07:54:39;14.18;;;3.70;;
55340;SDS011;58855;44.984;20.158;2022-07-22T07:57:06;6.32;;;3.88;;
55340;SDS011;58855;44.984;20.158;2022-07-22T07:59:33;8.13;;;3.08;;
55340;SDS011;58855;44.984;20.158;2022-07-22T08:01:59;6.97;;;3.33;;
55340;SDS011;58855;44.984;20.158;2022-07-22T08:04:25;6.55;;;3.15;;
55340;SDS011;58855;44.984;20.158;2022-07-22T08:06:51;8.75;;;2.72;;
55340;SDS011;58855;44.984;20.158;2022-07-22T08:09:17;5.50;;;2.80;;
55340;SDS011;58855;44.984;20.158;2022-07-22T08:11:43;11.73;;;3.28;;
55340;SDS011;58855;44.984;20.158;2022-07-22T08:14:09;11.20;;;3.33;;
55340;SDS011;58855;44.984;20.158;2022-07-22T08:16:36;10.80;;;3.17;;
55340;SDS011;58855;44.984;20.158;2022-07-22T08:19:02;8.55;;;2.97;;
55340;SDS011;58855;44.984;20.158;2022-07-22T08:21:28;7.25;;;3.45;;
55340;SDS011;58855;44.984;20.158;2022-07-22T08:23:54;10.35;;;3.88;;
55340;SDS011;58855;44.984;20.158;2022-07-22T08:26:20;9.45;;;3.15;;
55340;SDS011;58855;44.984;20.158;2022-07-22T08:28:46;9.27;;;3.30;;
55340;SDS011;58855;44.984;20.158;2022-07-22T08:31:13;13.38;;;3.88;;
55340;SDS011;58855;44.984;20.158;2022-07-22T08:33:39;13.18;;;4.15;;
55340;SDS011;58855;44.984;20.158;2022-07-22T08:36:05;10.43;;;4.80;;
55340;SDS011;58855;44.984;20.158;2022-07-22T08:38:31;13.30;;;4.30;;
55340;SDS011;58855;44.984;20.158;2022-07-22T08:40:57;9.52;;;3.80;;
55340;SDS011;58855;44.984;20.158;2022-07-22T08:43:24;12.50;;;4.13;;
55340;SDS011;58855;44.984;20.158;2022-07-22T08:45:50;5.03;;;3.47;;
55340;SDS011;58855;44.984;20.158;2022-07-22T08:48:16;14.50;;;3.20;;
55340;SDS011;58855;44.984;20.158;2022-07-22T08:50:44;7.50;;;3.60;;
55340;SDS011;58855;44.984;20.158;2022-07-22T08:53:13;9.77;;;3.53;;
55340;SDS011;58855;44.984;20.158;2022-07-22T08:55:47;9.30;;;2.90;;
55340;SDS011;58855;44.984;20.158;2022-07-22T08:58:14;9.13;;;3.75;;
55340;SDS011;58855;44.984;20.158;2022-07-22T09:00:40;10.13;;;3.80;;
55340;SDS011;58855;44.984;20.158;2022-07-22T09:03:24;9.20;;;4.35;;
55340;SDS011;58855;44.984;20.158;2022-07-22T09:05:52;11.18;;;3.92;;
55340;SDS011;58855;44.984;20.158;2022-07-22T09:08:19;11.43;;;3.63;;
55340;SDS011;58855;44.984;20.158;2022-07-22T09:10:45;6.82;;;3.58;;
55340;SDS011;58855;44.984;20.158;2022-07-22T09:13:12;10.15;;;4.05;;
55340;SDS011;58855;44.984;20.158;2022-07-22T09:15:47;15.23;;;4.22;;
55340;SDS011;58855;44.984;20.158;2022-07-22T09:18:13;6.97;;;2.92;;
55340;SDS011;58855;44.984;20.158;2022-07-22T09:20:39;9.48;;;3.42;;
55340;SDS011;58855;44.984;20.158;2022-07-22T09:23:18;7.78;;;3.10;;
55340;SDS011;58855;44.984;20.158;2022-07-22T09:25:48;5.30;;;2.38;;
55340;SDS011;58855;44.984;20.158;2022-07-22T09:28:16;11.43;;;3.42;;
55340;SDS011;58855;44.984;20.158;2022-07-22T09:30:49;5.00;;;2.65;;
55340;SDS011;58855;44.984;20.158;2022-07-22T09:33:16;6.60;;;2.58;;
55340;SDS011;58855;44.984;20.158;2022-07-22T09:35:43;9.73;;;3.28;;
55340;SDS011;58855;44.984;20.158;2022-07-22T09:38:10;4.63;;;1.90;;
55340;SDS011;58855;44.984;20.158;2022-07-22T09:40:43;5.32;;;1.92;;
55340;SDS011;58855;44.984;20.158;2022-07-22T09:43:10;5.70;;;2.08;;
55340;SDS011;58855;44.984;20.158;2022-07-22T09:45:48;7.15;;;1.83;;
55340;SDS011;58855;44.984;20.158;2022-07-22T09:48:18;3.45;;;1.83;;
55340;SDS011;58855;44.984;20.158;2022-07-22T09:50:45;4.57;;;1.90;;
55340;SDS011;58855;44.984;20.158;2022-07-22T09:53:11;8.93;;;2.30;;
55340;SDS011;58855;44.984;20.158;2022-07-22T09:55:37;5.85;;;1.85;;
55340;SDS011;58855;44.984;20.158;2022-07-22T09:58:04;5.72;;;1.83;;
55340;SDS011;58855;44.984;20.158;2022-07-22T10:00:32;6.78;;;1.90;;
55340;SDS011;58855;44.984;20.158;2022-07-22T10:03:00;4.97;;;1.80;;
55340;SDS011;58855;44.984;20.158;2022-07-22T10:05:30;4.25;;;2.20;;
55340;SDS011;58855;44.984;20.158;2022-07-22T10:07:56;4.00;;;2.03;;
55340;SDS011;58855;44.984;20.158;2022-07-22T10:10:23;4.30;;;1.85;;
55340;SDS011;58855;44.984;20.158;2022-07-22T10:12:51;5.18;;;2.40;;
55340;SDS011;58855;44.984;20.158;2022-07-22T10:15:17;2.95;;;1.70;;
55340;SDS011;58855;44.984;20.158;2022-07-22T10:17:45;5.60;;;2.60;;
55340;SDS011;58855;44.984;20.158;2022-07-22T10:20:15;5.90;;;2.30;;
55340;SDS011;58855;44.984;20.158;2022-07-22T10:25:08;6.82;;;2.40;;
55340;SDS011;58855;44.984;20.158;2022-07-22T10:27:44;6.57;;;2.45;;
55340;SDS011;58855;44.984;20.158;2022-07-22T10:30:12;6.28;;;2.75;;
55340;SDS011;58855;44.984;20.158;2022-07-22T10:32:38;4.53;;;2.15;;
55340;SDS011;58855;44.984;20.158;2022-07-22T10:37:37;5.10;;;2.08;;
55340;SDS011;58855;44.984;20.158;2022-07-22T10:45:29;4.63;;;2.50;;
55340;SDS011;58855;44.984;20.158;2022-07-22T10:47:59;9.50;;;2.10;;
55340;SDS011;58855;44.984;20.158;2022-07-22T10:53:05;7.95;;;2.78;;
55340;SDS011;58855;44.984;20.158;2022-07-22T10:55:31;7.13;;;2.63;;
55340;SDS011;58855;44.984;20.158;2022-07-22T10:57:58;9.50;;;2.40;;
55340;SDS011;58855;44.984;20.158;2022-07-22T11:00:24;10.40;;;2.45;;
55340;SDS011;58855;44.984;20.158;2022-07-22T11:02:50;5.15;;;2.10;;
55340;SDS011;58855;44.984;20.158;2022-07-22T11:05:26;8.75;;;2.42;;
55340;SDS011;58855;44.984;20.158;2022-07-22T11:07:54;7.32;;;2.20;;
55340;SDS011;58855;44.984;20.158;2022-07-22T11:10:20;4.38;;;2.08;;
55340;SDS011;58855;44.984;20.158;2022-07-22T11:12:47;7.22;;;2.00;;
55340;SDS011;58855;44.984;20.158;2022-07-22T11:15:13;5.70;;;2.03;;
55340;SDS011;58855;44.984;20.158;2022-07-22T11:17:40;6.30;;;2.03;;
55340;SDS011;58855;44.984;20.158;2022-07-22T11:20:07;14.95;;;2.30;;
55340;SDS011;58855;44.984;20.158;2022-07-22T11:22:34;8.25;;;2.53;;
55340;SDS011;58855;44.984;20.158;2022-07-22T11:25:00;5.00;;;2.25;;
55340;SDS011;58855;44.984;20.158;2022-07-22T11:27:27;12.13;;;2.40;;
55340;SDS011;58855;44.984;20.158;2022-07-22T11:29:55;8.02;;;2.10;;
55340;SDS011;58855;44.984;20.158;2022-07-22T11:32:23;5.30;;;2.30;;
55340;SDS011;58855;44.984;20.158;2022-07-22T11:34:49;13.88;;;2.58;;
55340;SDS011;58855;44.984;20.158;2022-07-22T11:37:16;4.13;;;2.20;;
55340;SDS011;58855;44.984;20.158;2022-07-22T11:39:43;6.60;;;2.25;;
55340;SDS011;58855;44.984;20.158;2022-07-22T11:42:09;9.43;;;2.38;;
55340;SDS011;58855;44.984;20.158;2022-07-22T11:44:36;4.75;;;2.17;;
55340;SDS011;58855;44.984;20.158;2022-07-22T11:47:03;5.57;;;2.20;;
55340;SDS011;58855;44.984;20.158;2022-07-22T11:49:30;8.18;;;2.35;;
55340;SDS011;58855;44.984;20.158;2022-07-22T11:51:58;4.45;;;2.10;;
55340;SDS011;58855;44.984;20.158;2022-07-22T11:54:25;9.35;;;2.78;;
55340;SDS011;58855;44.984;20.158;2022-07-22T11:56:51;8.48;;;2.53;;
55340;SDS011;58855;44.984;20.158;2022-07-22T11:59:17;10.73;;;2.20;;
55340;SDS011;58855;44.984;20.158;2022-07-22T12:01:44;7.13;;;2.40;;
55340;SDS011;58855;44.984;20.158;2022-07-22T12:04:11;5.85;;;2.50;;
55340;SDS011;58855;44.984;20.158;2022-07-22T12:06:39;6.13;;;2.33;;
55340;SDS011;58855;44.984;20.158;2022-07-22T12:09:07;5.60;;;2.50;;
55340;SDS011;58855;44.984;20.158;2022-07-22T12:11:34;8.75;;;2.40;;
55340;SDS011;58855;44.984;20.158;2022-07-22T12:14:07;6.18;;;2.20;;
55340;SDS011;58855;44.984;20.158;2022-07-22T12:16:34;4.35;;;2.08;;
55340;SDS011;58855;44.984;20.158;2022-07-22T12:21:30;7.15;;;2.10;;
55340;SDS011;58855;44.984;20.158;2022-07-22T12:24:00;6.72;;;2.30;;
55340;SDS011;58855;44.984;20.158;2022-07-22T12:26:39;8.80;;;2.55;;
55340;SDS011;58855;44.984;20.158;2022-07-22T12:29:12;3.80;;;2.03;;
55340;SDS011;58855;44.984;20.158;2022-07-22T12:34:04;9.23;;;1.92;;
55340;SDS011;58855;44.984;20.158;2022-07-22T12:36:32;6.07;;;2.28;;
55340;SDS011;58855;44.984;20.158;2022-07-22T12:39:10;4.30;;;2.00;;
55340;SDS011;58855;44.984;20.158;2022-07-22T12:41:43;3.75;;;1.88;;
55340;SDS011;58855;44.984;20.158;2022-07-22T12:44:30;6.53;;;2.50;;
55340;SDS011;58855;44.984;20.158;2022-07-22T12:46:56;7.28;;;2.13;;
55340;SDS011;58855;44.984;20.158;2022-07-22T12:49:23;6.93;;;2.50;;
55340;SDS011;58855;44.984;20.158;2022-07-22T12:52:06;6.03;;;2.30;;
55340;SDS011;58855;44.984;20.158;2022-07-22T12:54:33;4.88;;;2.72;;
55340;SDS011;58855;44.984;20.158;2022-07-22T12:57:00;4.28;;;1.80;;
55340;SDS011;58855;44.984;20.158;2022-07-22T12:59:26;4.63;;;2.30;;
55340;SDS011;58855;44.984;20.158;2022-07-22T13:01:52;8.50;;;2.10;;
55340;SDS011;58855;44.984;20.158;2022-07-22T13:04:19;6.57;;;2.28;;
55340;SDS011;58855;44.984;20.158;2022-07-22T13:06:45;7.40;;;2.10;;
55340;SDS011;58855;44.984;20.158;2022-07-22T13:09:11;6.75;;;2.50;;
55340;SDS011;58855;44.984;20.158;2022-07-22T13:11:37;5.75;;;2.30;;
55340;SDS011;58855;44.984;20.158;2022-07-22T13:14:09;4.30;;;2.30;;
55340;SDS011;58855;44.984;20.158;2022-07-22T13:16:35;8.02;;;2.97;;
55340;SDS011;58855;44.984;20.158;2022-07-22T13:19:01;5.95;;;3.00;;
55340;SDS011;58855;44.984;20.158;2022-07-22T13:21:28;8.60;;;2.28;;
55340;SDS011;58855;44.984;20.158;2022-07-22T13:23:54;8.23;;;2.30;;
55340;SDS011;58855;44.984;20.158;2022-07-22T13:26:20;6.45;;;2.40;;
55340;SDS011;58855;44.984;20.158;2022-07-22T13:28:47;4.93;;;1.90;;
55340;SDS011;58855;44.984;20.158;2022-07-22T13:31:13;5.38;;;1.73;;
55340;SDS011;58855;44.984;20.158;2022-07-22T13:33:39;7.18;;;2.33;;
55340;SDS011;58855;44.984;20.158;2022-07-22T13:36:05;6.45;;;2.35;;
55340;SDS011;58855;44.984;20.158;2022-07-22T13:38:31;7.20;;;2.90;;
55340;SDS011;58855;44.984;20.158;2022-07-22T13:40:57;5.93;;;2.65;;
55340;SDS011;58855;44.984;20.158;2022-07-22T13:43:24;4.90;;;2.47;;
55340;SDS011;58855;44.984;20.158;2022-07-22T13:45:51;4.88;;;2.38;;
55340;SDS011;58855;44.984;20.158;2022-07-22T13:48:17;6.97;;;2.53;;
55340;SDS011;58855;44.984;20.158;2022-07-22T13:50:45;7.82;;;2.25;;
55340;SDS011;58855;44.984;20.158;2022-07-22T13:53:11;8.07;;;1.88;;
55340;SDS011;58855;44.984;20.158;2022-07-22T13:55:38;5.65;;;1.83;;
55340;SDS011;58855;44.984;20.158;2022-07-22T13:58:04;3.88;;;1.77;;
55340;SDS011;58855;44.984;20.158;2022-07-22T14:00:31;6.38;;;1.83;;
55340;SDS011;58855;44.984;20.158;2022-07-22T14:02:57;5.40;;;2.25;;
55340;SDS011;58855;44.984;20.158;2022-07-22T14:05:23;7.10;;;2.47;;
55340;SDS011;58855;44.984;20.158;2022-07-22T14:07:49;5.45;;;2.03;;
55340;SDS011;58855;44.984;20.158;2022-07-22T14:10:16;4.85;;;2.38;;
55340;SDS011;58855;44.984;20.158;2022-07-22T14:12:42;5.15;;;1.75;;
55340;SDS011;58855;44.984;20.158;2022-07-22T14:15:09;3.67;;;2.08;;
55340;SDS011;58855;44.984;20.158;2022-07-22T14:17:35;4.25;;;1.98;;
55340;SDS011;58855;44.984;20.158;2022-07-22T14:20:02;5.78;;;1.88;;
55340;SDS011;58855;44.984;20.158;2022-07-22T14:22:30;9.15;;;2.30;;
55340;SDS011;58855;44.984;20.158;2022-07-22T14:24:56;6.32;;;1.98;;
55340;SDS011;58855;44.984;20.158;2022-07-22T14:27:22;3.90;;;1.85;;
55340;SDS011;58855;44.984;20.158;2022-07-22T14:29:48;7.53;;;1.90;;
55340;SDS011;58855;44.984;20.158;2022-07-22T14:32:14;6.93;;;2.00;;
55340;SDS011;58855;44.984;20.158;2022-07-22T14:34:40;4.53;;;1.90;;
55340;SDS011;58855;44.984;20.158;2022-07-22T14:37:06;5.93;;;1.90;;
55340;SDS011;58855;44.984;20.158;2022-07-22T14:39:33;6.68;;;2.45;;
55340;SDS011;58855;44.984;20.158;2022-07-22T14:42:00;5.18;;;2.30;;
55340;SDS011;58855;44.984;20.158;2022-07-22T14:44:26;5.22;;;2.08;;